sensor_id;sensor_type;location;lat;lon;timestamp;P1;durP1;ratioP1;P2;durP2;ratioP2
19006;SDS011;9636;47.382;8.480;2023-07-16T00:00:30;3.67;;;3.38;;
19006;SDS011;9636;47.382;8.480;2023-07-16T00:02:57;3.45;;;3.15;;
19006;SDS011;9636;47.382;8.480;2023-07-16T00:05:24;3.28;;;3.03;;
19006;SDS011;9636;47.382;8.480;2023-07-16T00:07:51;3.60;;;3.30;;
19006;SDS011;9636;47.382;8.480;2023-07-16T00:10:19;3.58;;;3.28;;
19006;SDS011;9636;47.382;8.480;2023-07-16T00:12:48;3.50;;;3.20;;
19006;SDS011;9636;47.382;8.480;2023-07-16T00:15:14;4.68;;;3.25;;
19006;SDS011;9636;47.382;8.480;2023-07-16T00:17:41;3.63;;;3.33;;
19006;SDS011;9636;47.382;8.480;2023-07-16T00:20:08;3.47;;;3.15;;
19006;SDS011;9636;47.382;8.480;2023-07-16T00:22:36;3.33;;;3.03;;
19006;SDS011;9636;47.382;8.480;2023-07-16T00:25:04;3.60;;;3.30;;
19006;SDS011;9636;47.382;8.480;2023-07-16T00:27:33;3.83;;;3.25;;
19006;SDS011;9636;47.382;8.480;2023-07-16T00:30:00;3.75;;;3.45;;
19006;SDS011;9636;47.382;8.480;2023-07-16T00:32:27;3.42;;;3.13;;
19006;SDS011;9636;47.382;8.480;2023-07-16T00:34:54;3.47;;;3.17;;
19006;SDS011;9636;47.382;8.480;2023-07-16T00:37:21;3.42;;;3.10;;
19006;SDS011;9636;47.382;8.480;2023-07-16T00:39:48;3.35;;;3.05;;
19006;SDS011;9636;47.382;8.480;2023-07-16T00:42:14;3.40;;;3.08;;
19006;SDS011;9636;47.382;8.480;2023-07-16T00:44:43;3.53;;;3.10;;
19006;SDS011;9636;47.382;8.480;2023-07-16T00:47:10;3.20;;;3.00;;
19006;SDS011;9636;47.382;8.480;2023-07-16T00:49:38;3.22;;;2.92;;
19006;SDS011;9636;47.382;8.480;2023-07-16T00:52:06;3.28;;;3.08;;
19006;SDS011;9636;47.382;8.480;2023-07-16T00:54:37;3.42;;;3.13;;
19006;SDS011;9636;47.382;8.480;2023-07-16T00:57:04;3.00;;;2.80;;
19006;SDS011;9636;47.382;8.480;2023-07-16T00:59:33;3.05;;;2.80;;
19006;SDS011;9636;47.382;8.480;2023-07-16T01:02:01;3.13;;;2.83;;
19006;SDS011;9636;47.382;8.480;2023-07-16T01:04:28;3.17;;;2.90;;
19006;SDS011;9636;47.382;8.480;2023-07-16T01:06:55;2.90;;;2.70;;
19006;SDS011;9636;47.382;8.480;2023-07-16T01:09:26;2.90;;;2.70;;
19006;SDS011;9636;47.382;8.480;2023-07-16T01:11:54;4.10;;;3.10;;
19006;SDS011;9636;47.382;8.480;2023-07-16T01:14:22;3.45;;;3.15;;
19006;SDS011;9636;47.382;8.480;2023-07-16T01:16:50;2.90;;;2.70;;
19006;SDS011;9636;47.382;8.480;2023-07-16T01:19:24;3.60;;;3.20;;
19006;SDS011;9636;47.382;8.480;2023-07-16T01:21:55;2.90;;;2.60;;
19006;SDS011;9636;47.382;8.480;2023-07-16T01:27:44;2.85;;;2.65;;
19006;SDS011;9636;47.382;8.480;2023-07-16T01:30:27;3.25;;;2.95;;
19006;SDS011;9636;47.382;8.480;2023-07-16T01:32:54;3.17;;;2.85;;
19006;SDS011;9636;47.382;8.480;2023-07-16T01:35:23;2.80;;;2.60;;
19006;SDS011;9636;47.382;8.480;2023-07-16T01:37:52;2.80;;;2.60;;
19006;SDS011;9636;47.382;8.480;2023-07-16T01:40:19;3.08;;;2.88;;
19006;SDS011;9636;47.382;8.480;2023-07-16T01:42:45;4.78;;;3.15;;
19006;SDS011;9636;47.382;8.480;2023-07-16T01:45:12;2.70;;;2.50;;
19006;SDS011;9636;47.382;8.480;2023-07-16T01:47:44;3.13;;;2.67;;
19006;SDS011;9636;47.382;8.480;2023-07-16T01:50:19;3.13;;;2.83;;
19006;SDS011;9636;47.382;8.480;2023-07-16T01:52:46;2.78;;;2.58;;
19006;SDS011;9636;47.382;8.480;2023-07-16T01:55:12;2.83;;;2.63;;
19006;SDS011;9636;47.382;8.480;2023-07-16T01:57:39;2.90;;;2.70;;
19006;SDS011;9636;47.382;8.480;2023-07-16T02:00:07;2.60;;;2.40;;
19006;SDS011;9636;47.382;8.480;2023-07-16T02:02:34;2.85;;;2.65;;
19006;SDS011;9636;47.382;8.480;2023-07-16T02:05:02;3.03;;;2.83;;
19006;SDS011;9636;47.382;8.480;2023-07-16T02:07:30;2.88;;;2.67;;
19006;SDS011;9636;47.382;8.480;2023-07-16T02:09:56;2.83;;;2.63;;
19006;SDS011;9636;47.382;8.480;2023-07-16T02:12:23;2.88;;;2.67;;
19006;SDS011;9636;47.382;8.480;2023-07-16T02:14:50;2.63;;;2.42;;
19006;SDS011;9636;47.382;8.480;2023-07-16T02:17:17;2.65;;;2.45;;
19006;SDS011;9636;47.382;8.480;2023-07-16T02:19:43;2.88;;;2.58;;
19006;SDS011;9636;47.382;8.480;2023-07-16T02:22:12;2.67;;;2.47;;
19006;SDS011;9636;47.382;8.480;2023-07-16T02:24:38;2.50;;;2.30;;
19006;SDS011;9636;47.382;8.480;2023-07-16T02:27:05;2.47;;;2.28;;
19006;SDS011;9636;47.382;8.480;2023-07-16T02:29:32;2.78;;;2.58;;
19006;SDS011;9636;47.382;8.480;2023-07-16T02:31:59;2.95;;;2.72;;
19006;SDS011;9636;47.382;8.480;2023-07-16T02:34:26;2.85;;;2.65;;
19006;SDS011;9636;47.382;8.480;2023-07-16T02:36:53;3.00;;;2.70;;
19006;SDS011;9636;47.382;8.480;2023-07-16T02:39:21;2.53;;;2.35;;
19006;SDS011;9636;47.382;8.480;2023-07-16T02:41:48;3.10;;;2.88;;
19006;SDS011;9636;47.382;8.480;2023-07-16T02:44:15;2.88;;;2.53;;
19006;SDS011;9636;47.382;8.480;2023-07-16T02:46:41;2.55;;;2.35;;
19006;SDS011;9636;47.382;8.480;2023-07-16T02:49:09;2.90;;;2.60;;
19006;SDS011;9636;47.382;8.480;2023-07-16T02:51:36;2.80;;;2.60;;
19006;SDS011;9636;47.382;8.480;2023-07-16T02:54:02;2.60;;;2.40;;
19006;SDS011;9636;47.382;8.480;2023-07-16T02:56:31;2.70;;;2.50;;
19006;SDS011;9636;47.382;8.480;2023-07-16T02:58:58;2.80;;;2.60;;
19006;SDS011;9636;47.382;8.480;2023-07-16T03:01:25;2.53;;;2.33;;
19006;SDS011;9636;47.382;8.480;2023-07-16T03:03:52;2.70;;;2.50;;
19006;SDS011;9636;47.382;8.480;2023-07-16T03:06:19;2.60;;;2.40;;
19006;SDS011;9636;47.382;8.480;2023-07-16T03:08:45;2.65;;;2.45;;
19006;SDS011;9636;47.382;8.480;2023-07-16T03:11:13;2.75;;;2.55;;
19006;SDS011;9636;47.382;8.480;2023-07-16T03:13:41;2.60;;;2.40;;
19006;SDS011;9636;47.382;8.480;2023-07-16T03:16:08;2.95;;;2.40;;
19006;SDS011;9636;47.382;8.480;2023-07-16T03:18:36;2.70;;;2.50;;
19006;SDS011;9636;47.382;8.480;2023-07-16T03:21:03;2.70;;;2.50;;
19006;SDS011;9636;47.382;8.480;2023-07-16T03:23:30;2.70;;;2.50;;
19006;SDS011;9636;47.382;8.480;2023-07-16T03:25:57;2.53;;;2.33;;
19006;SDS011;9636;47.382;8.480;2023-07-16T03:28:23;2.70;;;2.50;;
19006;SDS011;9636;47.382;8.480;2023-07-16T03:30:52;2.50;;;2.30;;
19006;SDS011;9636;47.382;8.480;2023-07-16T03:33:19;2.60;;;2.40;;
19006;SDS011;9636;47.382;8.480;2023-07-16T03:35:46;2.58;;;2.38;;
19006;SDS011;9636;47.382;8.480;2023-07-16T03:38:15;2.33;;;2.17;;
19006;SDS011;9636;47.382;8.480;2023-07-16T03:40:42;2.50;;;2.30;;
19006;SDS011;9636;47.382;8.480;2023-07-16T03:43:12;2.58;;;2.38;;
19006;SDS011;9636;47.382;8.480;2023-07-16T03:45:38;2.25;;;2.13;;
19006;SDS011;9636;47.382;8.480;2023-07-16T03:48:07;2.40;;;2.20;;
19006;SDS011;9636;47.382;8.480;2023-07-16T03:50:33;2.80;;;2.50;;
19006;SDS011;9636;47.382;8.480;2023-07-16T03:53:01;2.45;;;2.25;;
19006;SDS011;9636;47.382;8.480;2023-07-16T03:55:29;2.50;;;2.30;;
19006;SDS011;9636;47.382;8.480;2023-07-16T03:57:55;2.20;;;2.10;;
19006;SDS011;9636;47.382;8.480;2023-07-16T04:00:22;2.30;;;2.10;;
19006;SDS011;9636;47.382;8.480;2023-07-16T04:02:49;2.40;;;2.20;;
19006;SDS011;9636;47.382;8.480;2023-07-16T04:05:17;2.50;;;2.30;;
19006;SDS011;9636;47.382;8.480;2023-07-16T04:07:44;2.22;;;2.10;;
19006;SDS011;9636;47.382;8.480;2023-07-16T04:10:13;2.58;;;2.38;;
19006;SDS011;9636;47.382;8.480;2023-07-16T04:12:40;2.03;;;1.92;;
19006;SDS011;9636;47.382;8.480;2023-07-16T04:15:07;2.35;;;2.17;;
19006;SDS011;9636;47.382;8.480;2023-07-16T04:17:35;2.50;;;2.30;;
19006;SDS011;9636;47.382;8.480;2023-07-16T04:20:02;2.30;;;2.10;;
19006;SDS011;9636;47.382;8.480;2023-07-16T04:22:32;2.70;;;2.50;;
19006;SDS011;9636;47.382;8.480;2023-07-16T04:24:59;2.33;;;2.13;;
19006;SDS011;9636;47.382;8.480;2023-07-16T04:27:26;1.98;;;1.88;;
19006;SDS011;9636;47.382;8.480;2023-07-16T04:29:53;2.55;;;2.35;;
19006;SDS011;9636;47.382;8.480;2023-07-16T04:32:20;2.38;;;2.17;;
19006;SDS011;9636;47.382;8.480;2023-07-16T04:34:47;2.47;;;2.28;;
19006;SDS011;9636;47.382;8.480;2023-07-16T04:37:13;2.30;;;2.10;;
19006;SDS011;9636;47.382;8.480;2023-07-16T04:39:42;2.10;;;2.00;;
19006;SDS011;9636;47.382;8.480;2023-07-16T04:42:08;2.25;;;2.05;;
19006;SDS011;9636;47.382;8.480;2023-07-16T04:44:35;2.50;;;2.17;;
19006;SDS011;9636;47.382;8.480;2023-07-16T04:47:02;2.00;;;1.90;;
19006;SDS011;9636;47.382;8.480;2023-07-16T04:49:29;2.20;;;2.10;;
19006;SDS011;9636;47.382;8.480;2023-07-16T04:51:56;2.30;;;2.10;;
19006;SDS011;9636;47.382;8.480;2023-07-16T04:54:23;2.25;;;2.03;;
19006;SDS011;9636;47.382;8.480;2023-07-16T04:56:52;2.50;;;2.30;;
19006;SDS011;9636;47.382;8.480;2023-07-16T04:59:19;2.30;;;2.10;;
19006;SDS011;9636;47.382;8.480;2023-07-16T05:01:45;2.08;;;1.98;;
19006;SDS011;9636;47.382;8.480;2023-07-16T05:04:12;2.50;;;2.30;;
19006;SDS011;9636;47.382;8.480;2023-07-16T05:06:39;1.75;;;1.65;;
19006;SDS011;9636;47.382;8.480;2023-07-16T05:09:06;2.00;;;1.90;;
19006;SDS011;9636;47.382;8.480;2023-07-16T05:11:33;2.13;;;2.03;;
19006;SDS011;9636;47.382;8.480;2023-07-16T05:14:01;2.08;;;1.98;;
19006;SDS011;9636;47.382;8.480;2023-07-16T05:16:28;2.53;;;2.33;;
19006;SDS011;9636;47.382;8.480;2023-07-16T05:18:55;2.10;;;2.00;;
19006;SDS011;9636;47.382;8.480;2023-07-16T05:21:21;1.85;;;1.75;;
19006;SDS011;9636;47.382;8.480;2023-07-16T05:23:48;2.25;;;2.05;;
19006;SDS011;9636;47.382;8.480;2023-07-16T05:26:15;2.15;;;2.05;;
19006;SDS011;9636;47.382;8.480;2023-07-16T05:28:42;2.13;;;1.92;;
19006;SDS011;9636;47.382;8.480;2023-07-16T05:31:10;2.00;;;1.90;;
19006;SDS011;9636;47.382;8.480;2023-07-16T05:33:37;2.22;;;2.03;;
19006;SDS011;9636;47.382;8.480;2023-07-16T05:36:04;2.15;;;1.70;;
19006;SDS011;9636;47.382;8.480;2023-07-16T05:38:31;1.98;;;1.83;;
19006;SDS011;9636;47.382;8.480;2023-07-16T05:40:59;1.95;;;1.85;;
19006;SDS011;9636;47.382;8.480;2023-07-16T05:43:28;2.00;;;1.90;;
19006;SDS011;9636;47.382;8.480;2023-07-16T05:45:55;2.28;;;2.08;;
19006;SDS011;9636;47.382;8.480;2023-07-16T05:48:23;2.03;;;1.92;;
19006;SDS011;9636;47.382;8.480;2023-07-16T05:50:50;2.03;;;1.92;;
19006;SDS011;9636;47.382;8.480;2023-07-16T05:53:17;2.33;;;2.13;;
19006;SDS011;9636;47.382;8.480;2023-07-16T05:55:43;2.00;;;1.90;;
19006;SDS011;9636;47.382;8.480;2023-07-16T05:58:10;2.00;;;1.90;;
19006;SDS011;9636;47.382;8.480;2023-07-16T06:00:37;2.00;;;1.90;;
19006;SDS011;9636;47.382;8.480;2023-07-16T06:03:04;1.90;;;1.80;;
19006;SDS011;9636;47.382;8.480;2023-07-16T06:05:32;2.65;;;1.90;;
19006;SDS011;9636;47.382;8.480;2023-07-16T06:08:02;1.95;;;1.85;;
19006;SDS011;9636;47.382;8.480;2023-07-16T06:10:29;2.08;;;1.98;;
19006;SDS011;9636;47.382;8.480;2023-07-16T06:12:56;1.90;;;1.80;;
19006;SDS011;9636;47.382;8.480;2023-07-16T06:15:22;2.10;;;2.00;;
19006;SDS011;9636;47.382;8.480;2023-07-16T06:17:49;2.10;;;2.00;;
19006;SDS011;9636;47.382;8.480;2023-07-16T06:20:17;1.90;;;1.80;;
19006;SDS011;9636;47.382;8.480;2023-07-16T06:22:45;1.90;;;1.80;;
19006;SDS011;9636;47.382;8.480;2023-07-16T06:25:12;2.20;;;2.10;;
19006;SDS011;9636;47.382;8.480;2023-07-16T06:27:39;1.90;;;1.80;;
19006;SDS011;9636;47.382;8.480;2023-07-16T06:30:06;1.98;;;1.88;;
19006;SDS011;9636;47.382;8.480;2023-07-16T06:32:33;1.88;;;1.77;;
19006;SDS011;9636;47.382;8.480;2023-07-16T06:35:00;1.90;;;1.80;;
19006;SDS011;9636;47.382;8.480;2023-07-16T06:37:27;2.05;;;1.95;;
19006;SDS011;9636;47.382;8.480;2023-07-16T06:39:55;2.20;;;2.00;;
19006;SDS011;9636;47.382;8.480;2023-07-16T06:42:22;2.03;;;1.92;;
19006;SDS011;9636;47.382;8.480;2023-07-16T06:44:49;1.90;;;1.80;;
19006;SDS011;9636;47.382;8.480;2023-07-16T06:47:16;1.95;;;1.85;;
19006;SDS011;9636;47.382;8.480;2023-07-16T06:49:43;1.92;;;1.83;;
19006;SDS011;9636;47.382;8.480;2023-07-16T06:52:17;2.53;;;1.67;;
19006;SDS011;9636;47.382;8.480;2023-07-16T06:54:44;2.47;;;1.30;;
19006;SDS011;9636;47.382;8.480;2023-07-16T06:57:13;5.63;;;2.70;;
19006;SDS011;9636;47.382;8.480;2023-07-16T06:59:39;2.55;;;1.60;;
19006;SDS011;9636;47.382;8.480;2023-07-16T07:02:06;5.68;;;1.92;;
19006;SDS011;9636;47.382;8.480;2023-07-16T07:04:33;3.00;;;1.63;;
19006;SDS011;9636;47.382;8.480;2023-07-16T07:07:00;3.60;;;1.63;;
19006;SDS011;9636;47.382;8.480;2023-07-16T07:09:26;2.30;;;1.70;;
19006;SDS011;9636;47.382;8.480;2023-07-16T07:11:53;4.40;;;1.60;;
19006;SDS011;9636;47.382;8.480;2023-07-16T07:14:22;1.98;;;1.70;;
19006;SDS011;9636;47.382;8.480;2023-07-16T07:16:48;3.15;;;1.77;;
19006;SDS011;9636;47.382;8.480;2023-07-16T07:19:15;1.67;;;1.40;;
19006;SDS011;9636;47.382;8.480;2023-07-16T07:21:42;2.80;;;1.48;;
19006;SDS011;9636;47.382;8.480;2023-07-16T07:24:09;2.47;;;1.60;;
19006;SDS011;9636;47.382;8.480;2023-07-16T07:26:36;2.55;;;1.70;;
19006;SDS011;9636;47.382;8.480;2023-07-16T07:29:02;3.65;;;1.80;;
19006;SDS011;9636;47.382;8.480;2023-07-16T07:31:30;4.63;;;1.70;;
19006;SDS011;9636;47.382;8.480;2023-07-16T07:33:57;2.78;;;1.63;;
19006;SDS011;9636;47.382;8.480;2023-07-16T07:36:24;1.88;;;1.77;;
19006;SDS011;9636;47.382;8.480;2023-07-16T07:38:51;1.98;;;1.50;;
19006;SDS011;9636;47.382;8.480;2023-07-16T07:41:18;2.38;;;1.40;;
19006;SDS011;9636;47.382;8.480;2023-07-16T07:43:44;2.35;;;1.50;;
19006;SDS011;9636;47.382;8.480;2023-07-16T07:46:11;2.83;;;1.80;;
19006;SDS011;9636;47.382;8.480;2023-07-16T07:48:39;2.25;;;1.80;;
19006;SDS011;9636;47.382;8.480;2023-07-16T07:51:06;2.65;;;1.67;;
19006;SDS011;9636;47.382;8.480;2023-07-16T07:53:33;3.97;;;1.67;;
19006;SDS011;9636;47.382;8.480;2023-07-16T07:56:00;4.97;;;1.95;;
19006;SDS011;9636;47.382;8.480;2023-07-16T07:58:27;2.33;;;1.60;;
19006;SDS011;9636;47.382;8.480;2023-07-16T08:00:53;2.47;;;1.67;;
19006;SDS011;9636;47.382;8.480;2023-07-16T08:03:20;3.30;;;1.83;;
19006;SDS011;9636;47.382;8.480;2023-07-16T08:05:49;5.90;;;2.17;;
19006;SDS011;9636;47.382;8.480;2023-07-16T08:08:16;3.15;;;1.95;;
19006;SDS011;9636;47.382;8.480;2023-07-16T08:10:43;5.25;;;1.90;;
19006;SDS011;9636;47.382;8.480;2023-07-16T08:13:11;3.17;;;1.60;;
19006;SDS011;9636;47.382;8.480;2023-07-16T08:15:37;3.72;;;1.90;;
19006;SDS011;9636;47.382;8.480;2023-07-16T08:18:04;2.83;;;1.70;;
19006;SDS011;9636;47.382;8.480;2023-07-16T08:20:31;4.32;;;2.17;;
19006;SDS011;9636;47.382;8.480;2023-07-16T08:22:59;4.90;;;1.70;;
19006;SDS011;9636;47.382;8.480;2023-07-16T08:25:26;4.18;;;1.80;;
19006;SDS011;9636;47.382;8.480;2023-07-16T08:27:53;4.13;;;1.80;;
19006;SDS011;9636;47.382;8.480;2023-07-16T08:30:20;6.03;;;1.80;;
19006;SDS011;9636;47.382;8.480;2023-07-16T08:32:47;2.40;;;1.80;;
19006;SDS011;9636;47.382;8.480;2023-07-16T08:35:15;3.88;;;2.00;;
19006;SDS011;9636;47.382;8.480;2023-07-16T08:37:44;3.17;;;1.85;;
19006;SDS011;9636;47.382;8.480;2023-07-16T08:40:13;3.83;;;2.13;;
19006;SDS011;9636;47.382;8.480;2023-07-16T08:42:40;3.42;;;1.90;;
19006;SDS011;9636;47.382;8.480;2023-07-16T08:45:13;5.10;;;2.00;;
19006;SDS011;9636;47.382;8.480;2023-07-16T08:47:41;3.65;;;1.63;;
19006;SDS011;9636;47.382;8.480;2023-07-16T08:50:08;2.97;;;1.73;;
19006;SDS011;9636;47.382;8.480;2023-07-16T08:52:36;5.43;;;2.13;;
19006;SDS011;9636;47.382;8.480;2023-07-16T08:55:05;4.22;;;2.08;;
19006;SDS011;9636;47.382;8.480;2023-07-16T08:57:34;4.55;;;1.83;;
19006;SDS011;9636;47.382;8.480;2023-07-16T09:00:02;4.43;;;1.80;;
19006;SDS011;9636;47.382;8.480;2023-07-16T09:02:30;4.25;;;1.90;;
19006;SDS011;9636;47.382;8.480;2023-07-16T09:04:57;4.82;;;2.08;;
19006;SDS011;9636;47.382;8.480;2023-07-16T09:07:25;2.75;;;2.00;;
19006;SDS011;9636;47.382;8.480;2023-07-16T09:09:55;3.72;;;1.90;;
19006;SDS011;9636;47.382;8.480;2023-07-16T09:12:26;5.00;;;2.10;;
19006;SDS011;9636;47.382;8.480;2023-07-16T09:14:56;3.30;;;1.98;;
19006;SDS011;9636;47.382;8.480;2023-07-16T09:17:22;4.63;;;1.80;;
19006;SDS011;9636;47.382;8.480;2023-07-16T09:19:50;3.22;;;1.80;;
19006;SDS011;9636;47.382;8.480;2023-07-16T09:22:17;4.65;;;1.80;;
19006;SDS011;9636;47.382;8.480;2023-07-16T09:24:45;3.00;;;1.83;;
19006;SDS011;9636;47.382;8.480;2023-07-16T09:27:12;2.38;;;1.90;;
19006;SDS011;9636;47.382;8.480;2023-07-16T09:29:40;3.30;;;1.73;;
19006;SDS011;9636;47.382;8.480;2023-07-16T09:32:08;7.38;;;1.90;;
19006;SDS011;9636;47.382;8.480;2023-07-16T09:34:35;5.72;;;1.95;;
19006;SDS011;9636;47.382;8.480;2023-07-16T09:37:03;5.13;;;1.80;;
19006;SDS011;9636;47.382;8.480;2023-07-16T09:39:31;4.70;;;2.00;;
19006;SDS011;9636;47.382;8.480;2023-07-16T09:41:58;3.30;;;1.90;;
19006;SDS011;9636;47.382;8.480;2023-07-16T09:44:28;2.28;;;1.65;;
19006;SDS011;9636;47.382;8.480;2023-07-16T09:46:55;3.25;;;1.73;;
19006;SDS011;9636;47.382;8.480;2023-07-16T09:49:27;5.43;;;1.90;;
19006;SDS011;9636;47.382;8.480;2023-07-16T09:51:55;6.65;;;2.03;;
19006;SDS011;9636;47.382;8.480;2023-07-16T09:54:23;2.92;;;1.83;;
19006;SDS011;9636;47.382;8.480;2023-07-16T09:56:53;4.43;;;1.83;;
19006;SDS011;9636;47.382;8.480;2023-07-16T09:59:23;4.72;;;1.98;;
19006;SDS011;9636;47.382;8.480;2023-07-16T10:01:54;4.30;;;1.92;;
19006;SDS011;9636;47.382;8.480;2023-07-16T10:04:21;2.35;;;1.80;;
19006;SDS011;9636;47.382;8.480;2023-07-16T10:06:50;4.63;;;1.63;;
19006;SDS011;9636;47.382;8.480;2023-07-16T10:09:38;5.03;;;2.05;;
19006;SDS011;9636;47.382;8.480;2023-07-16T10:12:13;4.90;;;2.08;;
19006;SDS011;9636;47.382;8.480;2023-07-16T10:14:41;4.97;;;2.30;;
19006;SDS011;9636;47.382;8.480;2023-07-16T10:17:12;5.93;;;1.90;;
19006;SDS011;9636;47.382;8.480;2023-07-16T10:19:48;3.53;;;2.20;;
19006;SDS011;9636;47.382;8.480;2023-07-16T10:22:17;3.55;;;1.80;;
19006;SDS011;9636;47.382;8.480;2023-07-16T10:24:44;4.80;;;1.88;;
19006;SDS011;9636;47.382;8.480;2023-07-16T10:27:26;3.53;;;1.80;;
19006;SDS011;9636;47.382;8.480;2023-07-16T10:29:53;5.97;;;2.08;;
19006;SDS011;9636;47.382;8.480;2023-07-16T10:32:21;6.43;;;2.17;;
19006;SDS011;9636;47.382;8.480;2023-07-16T10:34:49;4.90;;;1.95;;
19006;SDS011;9636;47.382;8.480;2023-07-16T10:37:16;3.75;;;1.98;;
19006;SDS011;9636;47.382;8.480;2023-07-16T10:39:46;6.93;;;1.67;;
19006;SDS011;9636;47.382;8.480;2023-07-16T10:42:15;3.05;;;2.00;;
19006;SDS011;9636;47.382;8.480;2023-07-16T10:44:42;5.10;;;2.20;;
19006;SDS011;9636;47.382;8.480;2023-07-16T10:47:09;3.83;;;2.10;;
19006;SDS011;9636;47.382;8.480;2023-07-16T10:49:44;2.97;;;1.98;;
19006;SDS011;9636;47.382;8.480;2023-07-16T10:52:12;3.95;;;2.20;;
19006;SDS011;9636;47.382;8.480;2023-07-16T10:54:45;3.30;;;2.00;;
19006;SDS011;9636;47.382;8.480;2023-07-16T10:57:22;4.47;;;2.10;;
19006;SDS011;9636;47.382;8.480;2023-07-16T10:59:50;6.25;;;2.20;;
19006;SDS011;9636;47.382;8.480;2023-07-16T11:02:17;5.50;;;1.95;;
19006;SDS011;9636;47.382;8.480;2023-07-16T11:04:45;2.90;;;2.20;;
19006;SDS011;9636;47.382;8.480;2023-07-16T11:07:14;3.45;;;2.00;;
19006;SDS011;9636;47.382;8.480;2023-07-16T11:09:42;5.53;;;1.90;;
19006;SDS011;9636;47.382;8.480;2023-07-16T11:12:10;3.25;;;1.88;;
19006;SDS011;9636;47.382;8.480;2023-07-16T11:14:38;6.55;;;2.10;;
19006;SDS011;9636;47.382;8.480;2023-07-16T11:17:05;4.30;;;2.38;;
19006;SDS011;9636;47.382;8.480;2023-07-16T11:19:34;4.00;;;1.77;;
19006;SDS011;9636;47.382;8.480;2023-07-16T11:22:02;3.97;;;2.17;;
19006;SDS011;9636;47.382;8.480;2023-07-16T11:24:37;4.30;;;2.10;;
19006;SDS011;9636;47.382;8.480;2023-07-16T11:27:05;3.22;;;1.98;;
19006;SDS011;9636;47.382;8.480;2023-07-16T11:29:38;4.18;;;2.35;;
19006;SDS011;9636;47.382;8.480;2023-07-16T11:32:07;5.68;;;2.33;;
19006;SDS011;9636;47.382;8.480;2023-07-16T11:34:34;2.33;;;1.60;;
19006;SDS011;9636;47.382;8.480;2023-07-16T11:37:07;2.20;;;1.98;;
19006;SDS011;9636;47.382;8.480;2023-07-16T11:39:38;4.75;;;1.98;;
19006;SDS011;9636;47.382;8.480;2023-07-16T11:42:05;3.20;;;2.03;;
19006;SDS011;9636;47.382;8.480;2023-07-16T11:44:33;2.30;;;1.80;;
19006;SDS011;9636;47.382;8.480;2023-07-16T11:47:00;4.13;;;2.00;;
19006;SDS011;9636;47.382;8.480;2023-07-16T11:49:28;3.33;;;2.13;;
19006;SDS011;9636;47.382;8.480;2023-07-16T11:51:55;3.65;;;2.28;;
19006;SDS011;9636;47.382;8.480;2023-07-16T11:54:22;3.35;;;2.20;;
19006;SDS011;9636;47.382;8.480;2023-07-16T11:56:50;7.47;;;2.25;;
19006;SDS011;9636;47.382;8.480;2023-07-16T11:59:17;4.63;;;2.40;;
19006;SDS011;9636;47.382;8.480;2023-07-16T12:01:45;6.78;;;2.42;;
19006;SDS011;9636;47.382;8.480;2023-07-16T12:04:13;5.20;;;2.03;;
19006;SDS011;9636;47.382;8.480;2023-07-16T12:06:40;3.13;;;2.10;;
19006;SDS011;9636;47.382;8.480;2023-07-16T12:09:07;4.65;;;2.25;;
19006;SDS011;9636;47.382;8.480;2023-07-16T12:11:34;2.88;;;2.00;;
19006;SDS011;9636;47.382;8.480;2023-07-16T12:14:04;5.78;;;2.58;;
19006;SDS011;9636;47.382;8.480;2023-07-16T12:16:31;3.00;;;2.10;;
19006;SDS011;9636;47.382;8.480;2023-07-16T12:18:58;3.88;;;2.28;;
19006;SDS011;9636;47.382;8.480;2023-07-16T12:21:25;4.40;;;2.30;;
19006;SDS011;9636;47.382;8.480;2023-07-16T12:23:52;9.05;;;2.58;;
19006;SDS011;9636;47.382;8.480;2023-07-16T12:26:18;2.78;;;2.10;;
19006;SDS011;9636;47.382;8.480;2023-07-16T12:28:45;5.95;;;2.20;;
19006;SDS011;9636;47.382;8.480;2023-07-16T12:31:13;4.72;;;2.03;;
19006;SDS011;9636;47.382;8.480;2023-07-16T12:33:41;5.40;;;2.30;;
19006;SDS011;9636;47.382;8.480;2023-07-16T12:36:08;6.80;;;2.33;;
19006;SDS011;9636;47.382;8.480;2023-07-16T12:38:35;5.07;;;2.05;;
19006;SDS011;9636;47.382;8.480;2023-07-16T12:41:01;5.78;;;2.22;;
19006;SDS011;9636;47.382;8.480;2023-07-16T12:43:28;3.25;;;2.42;;
19006;SDS011;9636;47.382;8.480;2023-07-16T12:45:57;4.70;;;2.40;;
19006;SDS011;9636;47.382;8.480;2023-07-16T12:48:25;4.70;;;2.40;;
19006;SDS011;9636;47.382;8.480;2023-07-16T12:50:52;5.63;;;2.35;;
19006;SDS011;9636;47.382;8.480;2023-07-16T12:53:19;5.18;;;2.03;;
19006;SDS011;9636;47.382;8.480;2023-07-16T12:55:45;2.47;;;2.20;;
19006;SDS011;9636;47.382;8.480;2023-07-16T12:58:12;4.22;;;2.55;;
19006;SDS011;9636;47.382;8.480;2023-07-16T13:00:39;7.43;;;2.38;;
19006;SDS011;9636;47.382;8.480;2023-07-16T13:03:06;3.78;;;2.20;;
19006;SDS011;9636;47.382;8.480;2023-07-16T13:05:37;4.85;;;2.45;;
19006;SDS011;9636;47.382;8.480;2023-07-16T13:08:04;3.00;;;2.40;;
19006;SDS011;9636;47.382;8.480;2023-07-16T13:10:31;3.53;;;2.35;;
19006;SDS011;9636;47.382;8.480;2023-07-16T13:12:58;3.25;;;2.20;;
19006;SDS011;9636;47.382;8.480;2023-07-16T13:15:25;3.67;;;2.15;;
19006;SDS011;9636;47.382;8.480;2023-07-16T13:17:52;2.88;;;2.28;;
19006;SDS011;9636;47.382;8.480;2023-07-16T13:20:20;2.65;;;2.22;;
19006;SDS011;9636;47.382;8.480;2023-07-16T13:22:50;4.25;;;2.33;;
19006;SDS011;9636;47.382;8.480;2023-07-16T13:25:17;4.78;;;2.20;;
19006;SDS011;9636;47.382;8.480;2023-07-16T13:27:44;4.30;;;2.50;;
19006;SDS011;9636;47.382;8.480;2023-07-16T13:30:11;4.82;;;2.72;;
19006;SDS011;9636;47.382;8.480;2023-07-16T13:32:38;2.95;;;2.50;;
19006;SDS011;9636;47.382;8.480;2023-07-16T13:35:05;3.50;;;2.58;;
19006;SDS011;9636;47.382;8.480;2023-07-16T13:37:32;6.22;;;2.58;;
19006;SDS011;9636;47.382;8.480;2023-07-16T13:40:02;4.00;;;2.30;;
19006;SDS011;9636;47.382;8.480;2023-07-16T13:42:29;4.93;;;2.38;;
19006;SDS011;9636;47.382;8.480;2023-07-16T13:44:56;3.60;;;2.33;;
19006;SDS011;9636;47.382;8.480;2023-07-16T13:47:23;7.55;;;2.45;;
19006;SDS011;9636;47.382;8.480;2023-07-16T13:49:50;6.53;;;2.58;;
19006;SDS011;9636;47.382;8.480;2023-07-16T13:52:17;4.85;;;2.20;;
19006;SDS011;9636;47.382;8.480;2023-07-16T13:54:43;5.40;;;2.60;;
19006;SDS011;9636;47.382;8.480;2023-07-16T13:57:11;2.40;;;2.20;;
19006;SDS011;9636;47.382;8.480;2023-07-16T13:59:38;3.22;;;2.33;;
19006;SDS011;9636;47.382;8.480;2023-07-16T14:02:05;4.88;;;2.55;;
19006;SDS011;9636;47.382;8.480;2023-07-16T14:04:32;5.57;;;2.92;;
19006;SDS011;9636;47.382;8.480;2023-07-16T14:06:59;4.38;;;2.78;;
19006;SDS011;9636;47.382;8.480;2023-07-16T14:09:26;4.43;;;2.92;;
19006;SDS011;9636;47.382;8.480;2023-07-16T14:11:53;3.13;;;2.38;;
19006;SDS011;9636;47.382;8.480;2023-07-16T14:14:22;4.95;;;2.60;;
19006;SDS011;9636;47.382;8.480;2023-07-16T14:16:49;4.68;;;2.40;;
19006;SDS011;9636;47.382;8.480;2023-07-16T14:19:16;9.35;;;2.78;;
19006;SDS011;9636;47.382;8.480;2023-07-16T14:21:43;4.80;;;2.50;;
19006;SDS011;9636;47.382;8.480;2023-07-16T14:24:09;4.57;;;2.85;;
19006;SDS011;9636;47.382;8.480;2023-07-16T14:26:35;5.15;;;2.65;;
19006;SDS011;9636;47.382;8.480;2023-07-16T14:29:02;3.80;;;2.50;;
19006;SDS011;9636;47.382;8.480;2023-07-16T14:31:30;3.65;;;2.50;;
19006;SDS011;9636;47.382;8.480;2023-07-16T14:33:57;4.10;;;2.17;;
19006;SDS011;9636;47.382;8.480;2023-07-16T14:36:24;2.80;;;2.50;;
19006;SDS011;9636;47.382;8.480;2023-07-16T14:38:52;3.00;;;2.28;;
19006;SDS011;9636;47.382;8.480;2023-07-16T14:41:19;3.15;;;2.30;;
19006;SDS011;9636;47.382;8.480;2023-07-16T14:43:46;3.22;;;2.20;;
19006;SDS011;9636;47.382;8.480;2023-07-16T14:46:14;7.05;;;3.03;;
19006;SDS011;9636;47.382;8.480;2023-07-16T14:48:43;5.93;;;2.72;;
19006;SDS011;9636;47.382;8.480;2023-07-16T14:51:10;6.45;;;2.70;;
19006;SDS011;9636;47.382;8.480;2023-07-16T14:53:38;6.38;;;2.92;;
19006;SDS011;9636;47.382;8.480;2023-07-16T14:56:05;4.18;;;2.85;;
19006;SDS011;9636;47.382;8.480;2023-07-16T14:58:32;4.72;;;2.78;;
19006;SDS011;9636;47.382;8.480;2023-07-16T15:01:01;4.22;;;2.72;;
19006;SDS011;9636;47.382;8.480;2023-07-16T15:03:28;4.78;;;2.67;;
19006;SDS011;9636;47.382;8.480;2023-07-16T15:05:57;5.22;;;2.75;;